sensor_id;sensor_type;location;lat;lon;timestamp;pressure;altitude;pressure_sealevel;temperature;humidity
51781;BME280;37844;57.126;24.288;2023-02-01T00:01:50;99437.97;;;0.26;100.00
51781;BME280;37844;57.126;24.288;2023-02-01T00:04:16;99429.50;;;0.26;100.00
51781;BME280;37844;57.126;24.288;2023-02-01T00:06:41;99435.56;;;0.31;100.00
51781;BME280;37844;57.126;24.288;2023-02-01T00:09:07;99430.41;;;0.28;100.00
51781;BME280;37844;57.126;24.288;2023-02-01T00:11:33;99425.00;;;0.17;100.00
51781;BME280;37844;57.126;24.288;2023-02-01T00:13:59;99425.09;;;0.20;100.00
51781;BME280;37844;57.126;24.288;2023-02-01T00:16:27;99407.91;;;0.11;100.00
51781;BME280;37844;57.126;24.288;2023-02-01T00:19:12;99419.56;;;0.32;100.00
51781;BME280;37844;57.126;24.288;2023-02-01T00:21:38;99419.97;;;0.18;100.00
51781;BME280;37844;57.126;24.288;2023-02-01T00:24:04;99409.69;;;0.14;100.00
51781;BME280;37844;57.126;24.288;2023-02-01T00:26:38;99394.47;;;0.14;100.00
51781;BME280;37844;57.126;24.288;2023-02-01T00:29:07;99373.13;;;0.06;100.00
51781;BME280;37844;57.126;24.288;2023-02-01T00:31:34;99402.06;;;0.14;100.00
51781;BME280;37844;57.126;24.288;2023-02-01T00:33:59;99390.53;;;0.22;100.00
51781;BME280;37844;57.126;24.288;2023-02-01T00:36:25;99385.16;;;0.13;100.00
51781;BME280;37844;57.126;24.288;2023-02-01T00:38:51;99369.50;;;0.25;100.00
51781;BME280;37844;57.126;24.288;2023-02-01T00:41:19;99397.63;;;0.32;100.00
51781;BME280;37844;57.126;24.288;2023-02-01T00:43:45;99382.22;;;0.26;100.00
51781;BME280;37844;57.126;24.288;2023-02-01T00:46:12;99382.41;;;0.32;100.00
51781;BME280;37844;57.126;24.288;2023-02-01T00:48:38;99380.72;;;0.33;100.00
51781;BME280;37844;57.126;24.288;2023-02-01T00:51:07;99369.88;;;0.37;100.00
51781;BME280;37844;57.126;24.288;2023-02-01T00:53:33;99369.69;;;0.31;100.00
51781;BME280;37844;57.126;24.288;2023-02-01T00:55:59;99345.25;;;0.33;100.00
51781;BME280;37844;57.126;24.288;2023-02-01T00:58:25;99364.34;;;0.49;100.00
51781;BME280;37844;57.126;24.288;2023-02-01T01:01:02;99364.19;;;0.44;100.00
51781;BME280;37844;57.126;24.288;2023-02-01T01:03:28;99355.66;;;0.40;100.00
51781;BME280;37844;57.126;24.288;2023-02-01T01:05:58;99353.00;;;0.37;100.00
51781;BME280;37844;57.126;24.288;2023-02-01T01:08:24;99334.25;;;0.32;100.00
51781;BME280;37844;57.126;24.288;2023-02-01T01:10:49;99341.94;;;0.35;100.00
51781;BME280;37844;57.126;24.288;2023-02-01T01:13:15;99342.72;;;0.33;100.00
51781;BME280;37844;57.126;24.288;2023-02-01T01:15:40;99328.28;;;0.30;100.00
51781;BME280;37844;57.126;24.288;2023-02-01T01:18:07;99341.94;;;0.35;100.00
51781;BME280;37844;57.126;24.288;2023-02-01T01:20:37;99330.88;;;0.32;100.00
51781;BME280;37844;57.126;24.288;2023-02-01T01:23:03;99336.84;;;0.34;100.00
51781;BME280;37844;57.126;24.288;2023-02-01T01:25:29;99301.78;;;0.20;100.00
51781;BME280;37844;57.126;24.288;2023-02-01T01:27:55;99323.50;;;0.39;100.00
51781;BME280;37844;57.126;24.288;2023-02-01T01:30:21;99328.66;;;0.42;100.00
51781;BME280;37844;57.126;24.288;2023-02-01T01:32:46;99336.31;;;0.44;100.00
51781;BME280;37844;57.126;24.288;2023-02-01T01:35:12;99321.34;;;0.25;100.00
51781;BME280;37844;57.126;24.288;2023-02-01T01:37:37;99329.91;;;0.28;100.00
51781;BME280;37844;57.126;24.288;2023-02-01T01:40:05;99323.94;;;0.26;100.00
51781;BME280;37844;57.126;24.288;2023-02-01T01:42:40;99325.03;;;0.34;100.00
51781;BME280;37844;57.126;24.288;2023-02-01T01:47:42;99325.81;;;0.32;100.00
51781;BME280;37844;57.126;24.288;2023-02-01T01:50:10;99318.91;;;0.28;100.00
51781;BME280;37844;57.126;24.288;2023-02-01T01:52:38;99314.19;;;0.38;100.00
51781;BME280;37844;57.126;24.288;2023-02-01T01:55:06;99308.44;;;0.44;100.00
51781;BME280;37844;57.126;24.288;2023-02-01T01:57:38;99306.59;;;0.40;100.00
51781;BME280;37844;57.126;24.288;2023-02-01T02:00:13;99294.13;;;0.46;100.00
51781;BME280;37844;57.126;24.288;2023-02-01T02:02:41;99307.66;;;0.47;100.00
51781;BME280;37844;57.126;24.288;2023-02-01T02:05:08;99300.75;;;0.41;100.00
51781;BME280;37844;57.126;24.288;2023-02-01T02:07:37;99293.28;;;0.46;100.00
51781;BME280;37844;57.126;24.288;2023-02-01T02:10:08;99290.47;;;0.38;100.00
51781;BME280;37844;57.126;24.288;2023-02-01T02:12:38;99288.47;;;0.26;100.00
51781;BME280;37844;57.126;24.288;2023-02-01T02:15:06;99273.25;;;0.26;100.00
51781;BME280;37844;57.126;24.288;2023-02-01T02:28:37;99277.72;;;0.35;100.00
51781;BME280;37844;57.126;24.288;2023-02-01T02:53:16;99252.75;;;0.47;100.00
51781;BME280;37844;57.126;24.288;2023-02-01T02:56:04;99248.31;;;0.40;100.00
51781;BME280;37844;57.126;24.288;2023-02-01T02:58:50;99250.94;;;0.43;100.00
51781;BME280;37844;57.126;24.288;2023-02-01T03:01:35;99256.25;;;0.51;100.00
51781;BME280;37844;57.126;24.288;2023-02-01T03:04:19;99244.41;;;0.51;100.00
51781;BME280;37844;57.126;24.288;2023-02-01T03:06:46;99255.47;;;0.53;100.00
51781;BME280;37844;57.126;24.288;2023-02-01T03:09:22;99235.97;;;0.51;100.00
51781;BME280;37844;57.126;24.288;2023-02-01T03:11:51;99231.47;;;0.42;100.00
51781;BME280;37844;57.126;24.288;2023-02-01T03:14:43;99241.81;;;0.50;100.00
51781;BME280;37844;57.126;24.288;2023-02-01T03:17:17;99240.00;;;0.44;100.00
51781;BME280;37844;57.126;24.288;2023-02-01T03:19:46;99230.63;;;0.41;100.00
51781;BME280;37844;57.126;24.288;2023-02-01T03:22:21;99227.09;;;0.36;100.00
51781;BME280;37844;57.126;24.288;2023-02-01T03:25:12;99241.69;;;0.45;100.00
51781;BME280;37844;57.126;24.288;2023-02-01T03:27:58;99230.06;;;0.52;100.00
51781;BME280;37844;57.126;24.288;2023-02-01T03:30:35;99241.81;;;0.48;100.00
51781;BME280;37844;57.126;24.288;2023-02-01T03:33:05;99240.25;;;0.53;100.00
51781;BME280;37844;57.126;24.288;2023-02-01T03:38:51;99239.06;;;0.40;100.00
51781;BME280;37844;57.126;24.288;2023-02-01T03:43:53;99236.59;;;0.44;100.00
51781;BME280;37844;57.126;24.288;2023-02-01T03:46:27;99240.19;;;0.50;100.00
51781;BME280;37844;57.126;24.288;2023-02-01T03:49:01;99236.88;;;0.54;100.00
51781;BME280;37844;57.126;24.288;2023-02-01T03:51:29;99224.91;;;0.49;100.00
51781;BME280;37844;57.126;24.288;2023-02-01T03:53:55;99233.63;;;0.58;100.00
51781;BME280;37844;57.126;24.288;2023-02-01T03:56:24;99220.69;;;0.49;100.00
51781;BME280;37844;57.126;24.288;2023-02-01T03:58:51;99227.19;;;0.39;100.00
51781;BME280;37844;57.126;24.288;2023-02-01T04:01:27;99223.78;;;0.39;100.00
51781;BME280;37844;57.126;24.288;2023-02-01T04:03:53;99223.06;;;0.43;100.00
51781;BME280;37844;57.126;24.288;2023-02-01T04:06:19;99214.34;;;0.33;100.00
51781;BME280;37844;57.126;24.288;2023-02-01T04:08:45;99216.00;;;0.33;100.00
51781;BME280;37844;57.126;24.288;2023-02-01T04:11:11;99214.78;;;0.49;100.00
51781;BME280;37844;57.126;24.288;2023-02-01T04:13:37;99220.47;;;0.41;100.00
51781;BME280;37844;57.126;24.288;2023-02-01T04:16:02;99207.34;;;0.55;100.00
51781;BME280;37844;57.126;24.288;2023-02-01T04:18:28;99216.47;;;0.48;100.00
51781;BME280;37844;57.126;24.288;2023-02-01T04:20:53;99202.88;;;0.46;100.00
51781;BME280;37844;57.126;24.288;2023-02-01T04:23:19;99202.94;;;0.48;100.00
51781;BME280;37844;57.126;24.288;2023-02-01T04:25:44;99211.59;;;0.56;100.00
51781;BME280;37844;57.126;24.288;2023-02-01T04:28:10;99200.75;;;0.61;100.00
51781;BME280;37844;57.126;24.288;2023-02-01T04:30:35;99199.78;;;0.56;100.00
51781;BME280;37844;57.126;24.288;2023-02-01T04:33:01;99197.41;;;0.62;100.00
51781;BME280;37844;57.126;24.288;2023-02-01T04:35:28;99191.06;;;0.47;100.00
51781;BME280;37844;57.126;24.288;2023-02-01T04:37:54;99195.41;;;0.51;100.00
51781;BME280;37844;57.126;24.288;2023-02-01T04:40:19;99192.16;;;0.56;100.00
51781;BME280;37844;57.126;24.288;2023-02-01T04:42:45;99194.88;;;0.62;100.00
51781;BME280;37844;57.126;24.288;2023-02-01T04:45:10;99189.63;;;0.56;100.00
51781;BME280;37844;57.126;24.288;2023-02-01T04:47:36;99194.81;;;0.61;100.00
51781;BME280;37844;57.126;24.288;2023-02-01T04:50:01;99199.13;;;0.63;100.00
51781;BME280;37844;57.126;24.288;2023-02-01T04:52:27;99189.84;;;0.64;100.00
51781;BME280;37844;57.126;24.288;2023-02-01T04:54:52;99198.09;;;0.57;100.00
51781;BME280;37844;57.126;24.288;2023-02-01T04:57:19;99192.28;;;0.61;100.00
51781;BME280;37844;57.126;24.288;2023-02-01T04:59:52;99198.34;;;0.66;100.00
51781;BME280;37844;57.126;24.288;2023-02-01T05:02:18;99197.84;;;0.48;100.00
51781;BME280;37844;57.126;24.288;2023-02-01T05:04:43;99197.28;;;0.58;100.00
51781;BME280;37844;57.126;24.288;2023-02-01T05:07:15;99183.84;;;0.60;100.00
51781;BME280;37844;57.126;24.288;2023-02-01T05:09:41;99190.06;;;0.72;100.00
51781;BME280;37844;57.126;24.288;2023-02-01T05:12:08;99182.22;;;0.64;100.00
51781;BME280;37844;57.126;24.288;2023-02-01T05:14:53;99182.34;;;0.67;100.00
51781;BME280;37844;57.126;24.288;2023-02-01T05:17:18;99183.72;;;0.56;100.00
51781;BME280;37844;57.126;24.288;2023-02-01T05:19:44;99193.97;;;0.60;100.00
51781;BME280;37844;57.126;24.288;2023-02-01T05:22:09;99170.72;;;0.45;100.00
51781;BME280;37844;57.126;24.288;2023-02-01T05:24:34;99189.81;;;0.62;100.00
51781;BME280;37844;57.126;24.288;2023-02-01T05:27:00;99179.47;;;0.55;100.00
51781;BME280;37844;57.126;24.288;2023-02-01T05:29:25;99182.34;;;0.67;100.00
51781;BME280;37844;57.126;24.288;2023-02-01T05:31:51;99173.50;;;0.54;100.00
51781;BME280;37844;57.126;24.288;2023-02-01T05:34:16;99180.53;;;0.63;100.00
51781;BME280;37844;57.126;24.288;2023-02-01T05:36:42;99177.25;;;0.67;100.00
51781;BME280;37844;57.126;24.288;2023-02-01T05:39:07;99170.31;;;0.60;100.00
51781;BME280;37844;57.126;24.288;2023-02-01T05:41:34;99171.09;;;0.57;100.00
51781;BME280;37844;57.126;24.288;2023-02-01T05:44:00;99162.91;;;0.68;100.00
51781;BME280;37844;57.126;24.288;2023-02-01T05:46:25;99160.44;;;0.71;100.00
51781;BME280;37844;57.126;24.288;2023-02-01T05:48:51;99167.66;;;0.57;100.00
51781;BME280;37844;57.126;24.288;2023-02-01T05:51:16;99157.19;;;0.45;100.00
51781;BME280;37844;57.126;24.288;2023-02-01T05:53:41;99164.47;;;0.62;100.00
51781;BME280;37844;57.126;24.288;2023-02-01T05:56:07;99167.84;;;0.63;100.00
51781;BME280;37844;57.126;24.288;2023-02-01T05:58:32;99166.16;;;0.63;100.00
51781;BME280;37844;57.126;24.288;2023-02-01T06:01:02;99160.84;;;0.54;100.00
51781;BME280;37844;57.126;24.288;2023-02-01T06:03:34;99168.16;;;0.44;100.00
51781;BME280;37844;57.126;24.288;2023-02-01T06:06:00;99170.84;;;0.50;100.00
51781;BME280;37844;57.126;24.288;2023-02-01T06:08:26;99168.41;;;0.53;100.00
51781;BME280;37844;57.126;24.288;2023-02-01T06:10:58;99172.88;;;0.61;100.00
51781;BME280;37844;57.126;24.288;2023-02-01T06:13:23;99173.13;;;0.71;100.00
51781;BME280;37844;57.126;24.288;2023-02-01T06:15:49;99171.22;;;0.62;100.00
51781;BME280;37844;57.126;24.288;2023-02-01T06:18:14;99162.50;;;0.52;100.00
51781;BME280;37844;57.126;24.288;2023-02-01T06:20:41;99164.16;;;0.52;100.00
51781;BME280;37844;57.126;24.288;2023-02-01T06:23:06;99158.22;;;0.51;100.00
51781;BME280;37844;57.126;24.288;2023-02-01T06:25:38;99167.50;;;0.51;100.00
51781;BME280;37844;57.126;24.288;2023-02-01T06:28:10;99170.06;;;0.51;100.00
51781;BME280;37844;57.126;24.288;2023-02-01T06:30:36;99141.78;;;0.37;100.00
51781;BME280;37844;57.126;24.288;2023-02-01T06:33:01;99156.41;;;0.47;100.00
51781;BME280;37844;57.126;24.288;2023-02-01T06:35:27;99159.97;;;0.52;100.00
51781;BME280;37844;57.126;24.288;2023-02-01T06:37:52;99165.03;;;0.52;100.00
51781;BME280;37844;57.126;24.288;2023-02-01T06:40:18;99166.91;;;0.59;100.00
51781;BME280;37844;57.126;24.288;2023-02-01T06:42:43;99167.97;;;0.68;100.00
51781;BME280;37844;57.126;24.288;2023-02-01T06:45:09;99170.44;;;0.65;100.00
51781;BME280;37844;57.126;24.288;2023-02-01T06:47:35;99170.19;;;0.57;100.00
51781;BME280;37844;57.126;24.288;2023-02-01T06:50:00;99165.19;;;0.58;100.00
51781;BME280;37844;57.126;24.288;2023-02-01T06:52:26;99168.56;;;0.59;100.00
51781;BME280;37844;57.126;24.288;2023-02-01T06:54:51;99164.28;;;0.56;100.00
51781;BME280;37844;57.126;24.288;2023-02-01T06:57:17;99159.22;;;0.56;100.00
51781;BME280;37844;57.126;24.288;2023-02-01T06:59:42;99159.31;;;0.59;100.00
51781;BME280;37844;57.126;24.288;2023-02-01T07:02:11;99158.47;;;0.60;100.00
51781;BME280;37844;57.126;24.288;2023-02-01T07:04:37;99157.63;;;0.60;100.00
51781;BME280;37844;57.126;24.288;2023-02-01T07:07:03;99149.13;;;0.58;100.00
51781;BME280;37844;57.126;24.288;2023-02-01T07:09:28;99147.50;;;0.61;100.00
51781;BME280;37844;57.126;24.288;2023-02-01T07:11:54;99157.00;;;0.69;100.00
51781;BME280;37844;57.126;24.288;2023-02-01T07:14:19;99139.09;;;0.62;100.00
51781;BME280;37844;57.126;24.288;2023-02-01T07:16:44;99153.47;;;0.63;100.00
51781;BME280;37844;57.126;24.288;2023-02-01T07:19:10;99154.34;;;0.64;100.00
51781;BME280;37844;57.126;24.288;2023-02-01T07:21:35;99159.25;;;0.58;100.00
51781;BME280;37844;57.126;24.288;2023-02-01T07:24:01;99161.22;;;0.68;100.00
51781;BME280;37844;57.126;24.288;2023-02-01T07:26:26;99162.97;;;0.71;100.00
51781;BME280;37844;57.126;24.288;2023-02-01T07:28:52;99155.16;;;0.63;100.00
51781;BME280;37844;57.126;24.288;2023-02-01T07:31:18;99151.66;;;0.58;100.00
51781;BME280;37844;57.126;24.288;2023-02-01T07:33:46;99145.94;;;0.65;100.00
51781;BME280;37844;57.126;24.288;2023-02-01T07:36:13;99144.13;;;0.61;100.00
51781;BME280;37844;57.126;24.288;2023-02-01T07:38:40;99143.53;;;0.71;100.00
51781;BME280;37844;57.126;24.288;2023-02-01T07:41:06;99131.69;;;0.70;100.00
51781;BME280;37844;57.126;24.288;2023-02-01T07:43:31;99132.00;;;0.82;100.00
51781;BME280;37844;57.126;24.288;2023-02-01T07:45:58;99142.97;;;0.81;100.00
51781;BME280;37844;57.126;24.288;2023-02-01T07:48:25;99137.78;;;0.77;100.00
51781;BME280;37844;57.126;24.288;2023-02-01T07:53:28;99141.63;;;0.62;100.00
51781;BME280;37844;57.126;24.288;2023-02-01T07:55:54;99142.63;;;0.68;100.00
51781;BME280;37844;57.126;24.288;2023-02-01T07:58:21;99135.13;;;0.72;100.00
51781;BME280;37844;57.126;24.288;2023-02-01T08:00:47;99136.06;;;0.76;100.00
51781;BME280;37844;57.126;24.288;2023-02-01T08:03:31;99141.84;;;0.70;100.00
51781;BME280;37844;57.126;24.288;2023-02-01T08:05:56;99134.22;;;0.70;100.00
51781;BME280;37844;57.126;24.288;2023-02-01T08:08:22;99143.78;;;0.80;100.00
51781;BME280;37844;57.126;24.288;2023-02-01T08:10:47;99141.22;;;0.79;100.00
51781;BME280;37844;57.126;24.288;2023-02-01T08:13:13;99154.88;;;0.84;100.00
51781;BME280;37844;57.126;24.288;2023-02-01T08:15:39;99147.31;;;0.86;100.00
51781;BME280;37844;57.126;24.288;2023-02-01T08:18:04;99138.72;;;0.80;100.00
51781;BME280;37844;57.126;24.288;2023-02-01T08:20:30;99149.94;;;0.90;100.00
51781;BME280;37844;57.126;24.288;2023-02-01T08:22:56;99140.91;;;1.00;100.00
51781;BME280;37844;57.126;24.288;2023-02-01T08:25:23;99134.81;;;0.93;100.00
51781;BME280;37844;57.126;24.288;2023-02-01T08:27:49;99144.31;;;1.02;100.00
51781;BME280;37844;57.126;24.288;2023-02-01T08:30:15;99152.03;;;1.05;100.00
51781;BME280;37844;57.126;24.288;2023-02-01T08:32:40;99139.59;;;1.16;100.00
51781;BME280;37844;57.126;24.288;2023-02-01T08:35:06;99144.69;;;1.16;100.00
51781;BME280;37844;57.126;24.288;2023-02-01T08:37:32;99148.97;;;1.18;100.00
51781;BME280;37844;57.126;24.288;2023-02-01T08:39:58;99156.34;;;1.09;100.00
51781;BME280;37844;57.126;24.288;2023-02-01T08:42:23;99156.44;;;1.12;100.00
51781;BME280;37844;57.126;24.288;2023-02-01T08:45:08;99141.28;;;1.15;100.00
51781;BME280;37844;57.126;24.288;2023-02-01T08:47:34;99137.59;;;1.37;100.00
51781;BME280;37844;57.126;24.288;2023-02-01T08:50:00;99143.16;;;1.22;100.00
51781;BME280;37844;57.126;24.288;2023-02-01T08:52:25;99138.53;;;1.06;100.00
51781;BME280;37844;57.126;24.288;2023-02-01T08:54:51;99138.75;;;1.15;100.00
51781;BME280;37844;57.126;24.288;2023-02-01T08:57:17;99144.63;;;1.13;100.00
51781;BME280;37844;57.126;24.288;2023-02-01T08:59:42;99135.19;;;1.09;100.00
51781;BME280;37844;57.126;24.288;2023-02-01T09:02:13;99139.59;;;1.14;100.00
51781;BME280;37844;57.126;24.288;2023-02-01T09:04:39;99146.31;;;1.14;100.00
51781;BME280;37844;57.126;24.288;2023-02-01T09:07:05;99146.31;;;1.12;100.00
51781;BME280;37844;57.126;24.288;2023-02-01T09:09:31;99143.03;;;1.18;100.00
51781;BME280;37844;57.126;24.288;2023-02-01T09:11:56;99141.78;;;1.02;100.00
51781;BME280;37844;57.126;24.288;2023-02-01T09:14:22;99140.22;;;1.05;100.00
51781;BME280;37844;57.126;24.288;2023-02-01T09:16:47;99146.69;;;0.94;100.00
51781;BME280;37844;57.126;24.288;2023-02-01T09:19:13;99137.38;;;0.95;100.00
51781;BME280;37844;57.126;24.288;2023-02-01T09:21:39;99141.78;;;1.02;100.00
51781;BME280;37844;57.126;24.288;2023-02-01T09:24:04;99142.56;;;0.99;100.00
51781;BME280;37844;57.126;24.288;2023-02-01T09:26:30;99142.75;;;1.05;100.00
51781;BME280;37844;57.126;24.288;2023-02-01T09:28:56;99148.13;;;1.18;100.00
51781;BME280;37844;57.126;24.288;2023-02-01T09:31:21;99140.78;;;1.30;100.00
51781;BME280;37844;57.126;24.288;2023-02-01T09:33:47;99146.19;;;1.09;100.00
51781;BME280;37844;57.126;24.288;2023-02-01T09:36:12;99136.28;;;1.18;100.00
51781;BME280;37844;57.126;24.288;2023-02-01T09:38:37;99131.81;;;1.08;100.00
51781;BME280;37844;57.126;24.288;2023-02-01T09:41:14;99128.59;;;1.15;100.00
51781;BME280;37844;57.126;24.288;2023-02-01T09:44:18;99136.94;;;1.11;100.00
51781;BME280;37844;57.126;24.288;2023-02-01T09:46:42;99128.59;;;1.15;100.00
51781;BME280;37844;57.126;24.288;2023-02-01T09:49:22;99135.09;;;1.04;100.00
51781;BME280;37844;57.126;24.288;2023-02-01T09:51:51;99135.31;;;1.13;100.00
51781;BME280;37844;57.126;24.288;2023-02-01T09:54:24;99132.78;;;1.13;100.00
51781;BME280;37844;57.126;24.288;2023-02-01T09:57:04;99138.81;;;1.17;100.00
51781;BME280;37844;57.126;24.288;2023-02-01T09:59:46;99133.06;;;1.25;100.00
51781;BME280;37844;57.126;24.288;2023-02-01T10:04:40;99134.47;;;1.13;100.00
51781;BME280;37844;57.126;24.288;2023-02-01T10:09:52;99146.44;;;0.85;100.00
51781;BME280;37844;57.126;24.288;2023-02-01T10:20:48;99131.09;;;0.80;100.00
51781;BME280;37844;57.126;24.288;2023-02-01T10:23:39;99118.41;;;0.80;100.00
51781;BME280;37844;57.126;24.288;2023-02-01T10:26:23;99120.69;;;1.03;100.00
51781;BME280;37844;57.126;24.288;2023-02-01T10:28:51;99125.88;;;1.08;100.00
51781;BME280;37844;57.126;24.288;2023-02-01T10:31:18;99116.66;;;1.11;100.00
51781;BME280;37844;57.126;24.288;2023-02-01T10:33:47;99120.38;;;1.25;100.00
51781;BME280;37844;57.126;24.288;2023-02-01T10:36:25;99122.78;;;1.19;100.00
51781;BME280;37844;57.126;24.288;2023-02-01T10:38:53;99126.13;;;1.17;100.00
51781;BME280;37844;57.126;24.288;2023-02-01T10:41:22;99122.75;;;1.18;100.00
51781;BME280;37844;57.126;24.288;2023-02-01T10:43:55;99127.88;;;1.21;100.00
51781;BME280;37844;57.126;24.288;2023-02-01T10:46:23;99116.75;;;1.16;100.00
51781;BME280;37844;57.126;24.288;2023-02-01T10:48:50;99125.50;;;1.27;100.00
51781;BME280;37844;57.126;24.288;2023-02-01T10:54:13;99135.88;;;1.36;100.00
51781;BME280;37844;57.126;24.288;2023-02-01T10:56:43;99134.25;;;1.40;100.00
51781;BME280;37844;57.126;24.288;2023-02-01T10:59:18;99136.13;;;1.47;100.00
51781;BME280;37844;57.126;24.288;2023-02-01T11:01:46;99141.13;;;1.44;100.00
51781;BME280;37844;57.126;24.288;2023-02-01T11:04:16;99153.66;;;1.36;100.00
51781;BME280;37844;57.126;24.288;2023-02-01T11:06:46;99154.53;;;1.38;100.00
51781;BME280;37844;57.126;24.288;2023-02-01T11:09:19;99154.63;;;1.41;100.00
51781;BME280;37844;57.126;24.288;2023-02-01T11:14:19;99155.00;;;1.58;100.00
51781;BME280;37844;57.126;24.288;2023-02-01T11:16:59;99153.69;;;1.38;100.00
51781;BME280;37844;57.126;24.288;2023-02-01T11:19:26;99163.31;;;1.51;100.00
51781;BME280;37844;57.126;24.288;2023-02-01T11:21:58;99159.56;;;1.37;100.00
51781;BME280;37844;57.126;24.288;2023-02-01T11:24:35;99159.69;;;1.41;100.00
51781;BME280;37844;57.126;24.288;2023-02-01T11:27:05;99151.78;;;1.29;100.00
51781;BME280;37844;57.126;24.288;2023-02-01T11:29:40;99154.38;;;1.31;100.00
51781;BME280;37844;57.126;24.288;2023-02-01T11:32:08;99147.00;;;1.41;100.00
51781;BME280;37844;57.126;24.288;2023-02-01T11:34:48;99156.25;;;1.39;100.00
51781;BME280;37844;57.126;24.288;2023-02-01T11:37:27;99147.72;;;1.36;100.00
51781;BME280;37844;57.126;24.288;2023-02-01T11:40:01;99154.78;;;1.49;100.00
51781;BME280;37844;57.126;24.288;2023-02-01T11:42:29;99147.16;;;1.49;100.00
51781;BME280;37844;57.126;24.288;2023-02-01T11:45:17;99145.47;;;1.48;100.00
51781;BME280;37844;57.126;24.288;2023-02-01T11:47:43;99140.44;;;1.51;100.00
51781;BME280;37844;57.126;24.288;2023-02-01T11:50:34;99146.94;;;1.40;100.00
51781;BME280;37844;57.126;24.288;2023-02-01T11:53:23;99146.88;;;1.37;100.00
51781;BME280;37844;57.126;24.288;2023-02-01T12:03:29;99135.16;;;1.80;100.00
51781;BME280;37844;57.126;24.288;2023-02-01T12:30:36;99152.69;;;1.67;100.00
51781;BME280;37844;57.126;24.288;2023-02-01T12:36:12;99168.19;;;1.43;100.00
51781;BME280;37844;57.126;24.288;2023-02-01T12:41:56;99173.00;;;1.67;100.00
51781;BME280;37844;57.126;24.288;2023-02-01T12:44:37;99167.06;;;1.67;100.00
51781;BME280;37844;57.126;24.288;2023-02-01T12:47:18;99170.59;;;1.74;100.00
51781;BME280;37844;57.126;24.288;2023-02-01T12:49:53;99160.41;;;1.72;100.00
51781;BME280;37844;57.126;24.288;2023-02-01T12:52:50;99167.56;;;1.88;100.00
51781;BME280;37844;57.126;24.288;2023-02-01T12:55:22;99160.50;;;1.77;100.00
51781;BME280;37844;57.126;24.288;2023-02-01T12:58:26;99161.69;;;1.91;100.00
51781;BME280;37844;57.126;24.288;2023-02-01T13:01:00;99158.06;;;1.81;100.00
51781;BME280;37844;57.126;24.288;2023-02-01T13:06:41;99165.91;;;1.92;100.00
51781;BME280;37844;57.126;24.288;2023-02-01T13:09:28;99168.59;;;1.98;100.00
51781;BME280;37844;57.126;24.288;2023-02-01T13:11:58;99160.94;;;1.97;100.00
51781;BME280;37844;57.126;24.288;2023-02-01T13:14:48;99174.75;;;2.08;100.00
51781;BME280;37844;57.126;24.288;2023-02-01T13:17:19;99171.31;;;2.06;100.00
51781;BME280;37844;57.126;24.288;2023-02-01T13:19:49;99173.94;;;2.10;100.00
51781;BME280;37844;57.126;24.288;2023-02-01T13:22:40;99168.22;;;2.19;100.00
51781;BME280;37844;57.126;24.288;2023-02-01T13:27:56;99174.94;;;2.17;100.00
51781;BME280;37844;57.126;24.288;2023-02-01T13:30:57;99174.09;;;2.17;100.00
51781;BME280;37844;57.126;24.288;2023-02-01T13:34:02;99180.06;;;2.19;100.00
51781;BME280;37844;57.126;24.288;2023-02-01T13:36:43;99177.53;;;2.20;100.00
51781;BME280;37844;57.126;24.288;2023-02-01T13:44:43;99191.94;;;2.20;100.00
51781;BME280;37844;57.126;24.288;2023-02-01T13:47:24;99193.69;;;2.22;100.00
51781;BME280;37844;57.126;24.288;2023-02-01T13:49:51;99193.56;;;2.16;100.00
51781;BME280;37844;57.126;24.288;2023-02-01T13:52:37;99067.56;;;1.45;100.00
51781;BME280;37844;57.126;24.288;2023-02-01T13:57:41;99164.78;;;2.17;100.00
51781;BME280;37844;57.126;24.288;2023-02-01T14:00:34;99196.38;;;2.30;100.00
51781;BME280;37844;57.126;24.288;2023-02-01T14:13:36;99207.28;;;2.24;100.00
51781;BME280;37844;57.126;24.288;2023-02-01T14:21:33;99218.47;;;2.32;100.00
51781;BME280;37844;57.126;24.288;2023-02-01T14:26:44;99219.34;;;2.33;100.00
51781;BME280;37844;57.126;24.288;2023-02-01T14:29:24;99219.25;;;2.28;100.00
51781;BME280;37844;57.126;24.288;2023-02-01T14:32:17;99215.06;;;2.32;100.00
51781;BME280;37844;57.126;24.288;2023-02-01T14:47:43;99234.72;;;2.39;100.00
51781;BME280;37844;57.126;24.288;2023-02-01T14:52:41;99241.53;;;2.40;100.00
51781;BME280;37844;57.126;24.288;2023-02-01T14:55:15;99246.59;;;2.39;100.00
51781;BME280;37844;57.126;24.288;2023-02-01T14:57:46;99244.00;;;2.37;100.00
51781;BME280;37844;57.126;24.288;2023-02-01T15:00:21;99254.06;;;2.32;100.00
51781;BME280;37844;57.126;24.288;2023-02-01T15:02:48;99256.59;;;2.32;100.00
51781;BME280;37844;57.126;24.288;2023-02-01T15:07:52;99262.44;;;2.27;100.00
51781;BME280;37844;57.126;24.288;2023-02-01T15:10:19;99258.09;;;2.23;100.00
51781;BME280;37844;57.126;24.288;2023-02-01T15:12:46;99261.31;;;2.14;100.00
51781;BME280;37844;57.126;24.288;2023-02-01T15:15:21;99270.75;;;2.20;100.00
51781;BME280;37844;57.126;24.288;2023-02-01T15:17:58;99264.75;;;2.18;100.00
51781;BME280;37844;57.126;24.288;2023-02-01T15:20:30;99275.03;;;2.21;100.00
51781;BME280;37844;57.126;24.288;2023-02-01T15:23:04;99271.75;;;2.26;100.00
51781;BME280;37844;57.126;24.288;2023-02-01T15:25:35;99280.97;;;2.21;100.00
51781;BME280;37844;57.126;24.288;2023-02-01T15:28:02;99280.88;;;2.18;100.00
51781;BME280;37844;57.126;24.288;2023-02-01T15:30:33;99263.53;;;2.00;100.00
51781;BME280;37844;57.126;24.288;2023-02-01T15:33:16;99284.06;;;2.09;100.00
51781;BME280;37844;57.126;24.288;2023-02-01T15:35:45;99288.25;;;2.07;100.00
51781;BME280;37844;57.126;24.288;2023-02-01T15:38:33;99290.75;;;2.04;100.00